sensor_id;sensor_type;location;lat;lon;timestamp;P1;durP1;ratioP1;P2;durP2;ratioP2
3561;SDS011;1795;52.074;4.754;2023-03-14T00:02:31;16.63;;;4.00;;
3561;SDS011;1795;52.074;4.754;2023-03-14T00:05:00;10.93;;;3.78;;
3561;SDS011;1795;52.074;4.754;2023-03-14T00:07:28;11.25;;;3.63;;
3561;SDS011;1795;52.074;4.754;2023-03-14T00:10:00;9.87;;;3.00;;
3561;SDS011;1795;52.074;4.754;2023-03-14T00:12:32;9.02;;;3.20;;
3561;SDS011;1795;52.074;4.754;2023-03-14T00:15:00;13.57;;;4.33;;
3561;SDS011;1795;52.074;4.754;2023-03-14T00:17:29;13.30;;;4.82;;
3561;SDS011;1795;52.074;4.754;2023-03-14T00:19:57;16.30;;;4.70;;
3561;SDS011;1795;52.074;4.754;2023-03-14T00:22:30;14.00;;;5.10;;
3561;SDS011;1795;52.074;4.754;2023-03-14T00:24:59;15.35;;;4.32;;
3561;SDS011;1795;52.074;4.754;2023-03-14T00:27:27;13.93;;;4.30;;
3561;SDS011;1795;52.074;4.754;2023-03-14T00:29:56;14.43;;;4.70;;
3561;SDS011;1795;52.074;4.754;2023-03-14T00:32:24;15.40;;;3.80;;
3561;SDS011;1795;52.074;4.754;2023-03-14T00:34:52;9.55;;;3.38;;
3561;SDS011;1795;52.074;4.754;2023-03-14T00:37:20;9.05;;;3.15;;
3561;SDS011;1795;52.074;4.754;2023-03-14T00:39:48;6.50;;;2.40;;
3561;SDS011;1795;52.074;4.754;2023-03-14T00:42:18;10.75;;;3.20;;
3561;SDS011;1795;52.074;4.754;2023-03-14T00:44:46;11.77;;;4.20;;
3561;SDS011;1795;52.074;4.754;2023-03-14T00:47:15;9.60;;;3.22;;
3561;SDS011;1795;52.074;4.754;2023-03-14T00:49:43;10.60;;;3.80;;
3561;SDS011;1795;52.074;4.754;2023-03-14T00:52:11;12.45;;;3.20;;
3561;SDS011;1795;52.074;4.754;2023-03-14T00:54:39;14.15;;;3.60;;
3561;SDS011;1795;52.074;4.754;2023-03-14T00:57:07;12.77;;;3.80;;
3561;SDS011;1795;52.074;4.754;2023-03-14T00:59:35;12.98;;;3.50;;
3561;SDS011;1795;52.074;4.754;2023-03-14T01:02:03;11.90;;;3.75;;
3561;SDS011;1795;52.074;4.754;2023-03-14T01:04:33;13.98;;;3.83;;
3561;SDS011;1795;52.074;4.754;2023-03-14T01:07:01;15.05;;;3.80;;
3561;SDS011;1795;52.074;4.754;2023-03-14T01:09:29;15.30;;;4.53;;
3561;SDS011;1795;52.074;4.754;2023-03-14T01:11:57;12.52;;;4.00;;
3561;SDS011;1795;52.074;4.754;2023-03-14T01:14:25;12.63;;;4.30;;
3561;SDS011;1795;52.074;4.754;2023-03-14T01:16:53;14.57;;;4.05;;
3561;SDS011;1795;52.074;4.754;2023-03-14T01:19:26;15.57;;;4.25;;
3561;SDS011;1795;52.074;4.754;2023-03-14T01:21:56;18.90;;;4.43;;
3561;SDS011;1795;52.074;4.754;2023-03-14T01:24:24;20.57;;;4.80;;
3561;SDS011;1795;52.074;4.754;2023-03-14T01:26:52;17.48;;;4.55;;
3561;SDS011;1795;52.074;4.754;2023-03-14T01:29:20;12.80;;;3.90;;
3561;SDS011;1795;52.074;4.754;2023-03-14T01:31:48;14.07;;;4.35;;
3561;SDS011;1795;52.074;4.754;2023-03-14T01:34:16;15.00;;;3.65;;
3561;SDS011;1795;52.074;4.754;2023-03-14T01:36:44;14.35;;;4.45;;
3561;SDS011;1795;52.074;4.754;2023-03-14T01:39:13;13.10;;;4.50;;
3561;SDS011;1795;52.074;4.754;2023-03-14T01:41:41;14.57;;;4.40;;
3561;SDS011;1795;52.074;4.754;2023-03-14T01:44:10;10.75;;;3.75;;
3561;SDS011;1795;52.074;4.754;2023-03-14T01:46:39;14.02;;;4.03;;
3561;SDS011;1795;52.074;4.754;2023-03-14T01:49:13;10.75;;;3.35;;
3561;SDS011;1795;52.074;4.754;2023-03-14T01:51:48;16.25;;;3.42;;
3561;SDS011;1795;52.074;4.754;2023-03-14T01:54:22;11.00;;;3.55;;
3561;SDS011;1795;52.074;4.754;2023-03-14T01:56:55;14.98;;;4.20;;
3561;SDS011;1795;52.074;4.754;2023-03-14T01:59:25;17.80;;;3.40;;
3561;SDS011;1795;52.074;4.754;2023-03-14T02:01:56;10.88;;;3.55;;
3561;SDS011;1795;52.074;4.754;2023-03-14T02:04:26;11.13;;;3.70;;
3561;SDS011;1795;52.074;4.754;2023-03-14T02:09:29;14.07;;;3.70;;
3561;SDS011;1795;52.074;4.754;2023-03-14T02:11:57;13.50;;;3.00;;
3561;SDS011;1795;52.074;4.754;2023-03-14T02:14:28;8.98;;;2.60;;
3561;SDS011;1795;52.074;4.754;2023-03-14T02:16:59;11.43;;;3.00;;
3561;SDS011;1795;52.074;4.754;2023-03-14T02:19:32;11.75;;;2.63;;
3561;SDS011;1795;52.074;4.754;2023-03-14T02:22:10;12.90;;;3.20;;
3561;SDS011;1795;52.074;4.754;2023-03-14T02:24:43;11.80;;;2.83;;
3561;SDS011;1795;52.074;4.754;2023-03-14T02:27:19;16.17;;;3.90;;
3561;SDS011;1795;52.074;4.754;2023-03-14T02:29:49;11.18;;;3.95;;
3561;SDS011;1795;52.074;4.754;2023-03-14T02:32:20;11.60;;;3.90;;
3561;SDS011;1795;52.074;4.754;2023-03-14T02:34:50;14.30;;;4.00;;
3561;SDS011;1795;52.074;4.754;2023-03-14T02:37:22;8.82;;;3.47;;
3561;SDS011;1795;52.074;4.754;2023-03-14T02:39:54;9.93;;;3.30;;
3561;SDS011;1795;52.074;4.754;2023-03-14T02:42:24;10.07;;;3.50;;
3561;SDS011;1795;52.074;4.754;2023-03-14T02:44:53;9.82;;;3.50;;
3561;SDS011;1795;52.074;4.754;2023-03-14T02:47:42;7.85;;;3.10;;
3561;SDS011;1795;52.074;4.754;2023-03-14T02:50:14;12.82;;;2.88;;
3561;SDS011;1795;52.074;4.754;2023-03-14T02:52:45;8.10;;;3.10;;
3561;SDS011;1795;52.074;4.754;2023-03-14T02:55:14;7.35;;;3.58;;
3561;SDS011;1795;52.074;4.754;2023-03-14T02:57:43;7.50;;;3.50;;
3561;SDS011;1795;52.074;4.754;2023-03-14T03:00:11;14.40;;;3.10;;
3561;SDS011;1795;52.074;4.754;2023-03-14T03:02:41;10.55;;;3.05;;
3561;SDS011;1795;52.074;4.754;2023-03-14T03:05:09;7.85;;;2.75;;
3561;SDS011;1795;52.074;4.754;2023-03-14T03:07:36;11.80;;;2.90;;
3561;SDS011;1795;52.074;4.754;2023-03-14T03:10:05;10.30;;;3.30;;
3561;SDS011;1795;52.074;4.754;2023-03-14T03:12:33;12.38;;;2.92;;
3561;SDS011;1795;52.074;4.754;2023-03-14T03:15:03;9.75;;;2.60;;
3561;SDS011;1795;52.074;4.754;2023-03-14T03:17:32;14.85;;;3.33;;
3561;SDS011;1795;52.074;4.754;2023-03-14T03:20:00;9.32;;;3.33;;
3561;SDS011;1795;52.074;4.754;2023-03-14T03:22:31;12.80;;;3.60;;
3561;SDS011;1795;52.074;4.754;2023-03-14T03:24:59;10.15;;;3.05;;
3561;SDS011;1795;52.074;4.754;2023-03-14T03:27:28;11.25;;;3.13;;
3561;SDS011;1795;52.074;4.754;2023-03-14T03:29:57;9.73;;;2.90;;
3561;SDS011;1795;52.074;4.754;2023-03-14T03:32:26;9.90;;;3.33;;
3561;SDS011;1795;52.074;4.754;2023-03-14T03:34:54;9.18;;;2.80;;
3561;SDS011;1795;52.074;4.754;2023-03-14T03:37:22;10.95;;;3.28;;
3561;SDS011;1795;52.074;4.754;2023-03-14T03:39:50;13.05;;;3.67;;
3561;SDS011;1795;52.074;4.754;2023-03-14T03:42:19;8.93;;;3.65;;
3561;SDS011;1795;52.074;4.754;2023-03-14T03:44:47;12.98;;;3.97;;
3561;SDS011;1795;52.074;4.754;2023-03-14T03:47:15;14.75;;;4.20;;
3561;SDS011;1795;52.074;4.754;2023-03-14T03:49:45;11.30;;;3.20;;
3561;SDS011;1795;52.074;4.754;2023-03-14T03:52:13;10.30;;;3.50;;
3561;SDS011;1795;52.074;4.754;2023-03-14T03:54:41;9.20;;;3.55;;
3561;SDS011;1795;52.074;4.754;2023-03-14T03:57:09;11.55;;;3.47;;
3561;SDS011;1795;52.074;4.754;2023-03-14T03:59:37;12.23;;;3.60;;
3561;SDS011;1795;52.074;4.754;2023-03-14T04:02:06;14.68;;;3.70;;
3561;SDS011;1795;52.074;4.754;2023-03-14T04:04:35;12.70;;;3.87;;
3561;SDS011;1795;52.074;4.754;2023-03-14T04:07:05;13.48;;;4.10;;
3561;SDS011;1795;52.074;4.754;2023-03-14T04:09:33;12.02;;;4.03;;
3561;SDS011;1795;52.074;4.754;2023-03-14T04:12:01;14.10;;;4.33;;
3561;SDS011;1795;52.074;4.754;2023-03-14T04:14:29;6.30;;;3.10;;
3561;SDS011;1795;52.074;4.754;2023-03-14T04:16:57;7.38;;;2.40;;
3561;SDS011;1795;52.074;4.754;2023-03-14T04:19:25;13.43;;;3.13;;
3561;SDS011;1795;52.074;4.754;2023-03-14T04:21:53;8.55;;;2.80;;
3561;SDS011;1795;52.074;4.754;2023-03-14T04:24:22;9.00;;;2.92;;
3561;SDS011;1795;52.074;4.754;2023-03-14T04:26:50;11.43;;;3.10;;
3561;SDS011;1795;52.074;4.754;2023-03-14T04:29:18;11.70;;;2.40;;
3561;SDS011;1795;52.074;4.754;2023-03-14T04:31:47;12.00;;;3.30;;
3561;SDS011;1795;52.074;4.754;2023-03-14T04:34:14;12.75;;;3.63;;
3561;SDS011;1795;52.074;4.754;2023-03-14T04:36:42;7.78;;;3.30;;
3561;SDS011;1795;52.074;4.754;2023-03-14T04:39:11;10.93;;;3.10;;
3561;SDS011;1795;52.074;4.754;2023-03-14T04:41:40;10.33;;;3.30;;
3561;SDS011;1795;52.074;4.754;2023-03-14T04:44:08;10.13;;;2.88;;
3561;SDS011;1795;52.074;4.754;2023-03-14T04:46:36;10.90;;;2.90;;
3561;SDS011;1795;52.074;4.754;2023-03-14T04:49:04;8.83;;;2.60;;
3561;SDS011;1795;52.074;4.754;2023-03-14T04:51:32;8.07;;;2.60;;
3561;SDS011;1795;52.074;4.754;2023-03-14T04:54:00;10.43;;;2.80;;
3561;SDS011;1795;52.074;4.754;2023-03-14T04:56:28;8.27;;;3.33;;
3561;SDS011;1795;52.074;4.754;2023-03-14T04:58:58;12.52;;;3.50;;
3561;SDS011;1795;52.074;4.754;2023-03-14T05:01:26;11.40;;;3.33;;
3561;SDS011;1795;52.074;4.754;2023-03-14T05:03:54;8.40;;;2.83;;
3561;SDS011;1795;52.074;4.754;2023-03-14T05:06:22;7.57;;;3.40;;
3561;SDS011;1795;52.074;4.754;2023-03-14T05:08:50;7.63;;;2.83;;
3561;SDS011;1795;52.074;4.754;2023-03-14T05:11:18;8.57;;;3.25;;
3561;SDS011;1795;52.074;4.754;2023-03-14T05:13:46;9.85;;;3.50;;
3561;SDS011;1795;52.074;4.754;2023-03-14T05:16:15;12.02;;;3.25;;
3561;SDS011;1795;52.074;4.754;2023-03-14T05:18:43;10.73;;;4.00;;
3561;SDS011;1795;52.074;4.754;2023-03-14T05:21:11;10.30;;;4.40;;
3561;SDS011;1795;52.074;4.754;2023-03-14T05:23:39;8.43;;;4.50;;
3561;SDS011;1795;52.074;4.754;2023-03-14T05:26:07;9.07;;;3.72;;
3561;SDS011;1795;52.074;4.754;2023-03-14T05:28:35;11.35;;;3.60;;
3561;SDS011;1795;52.074;4.754;2023-03-14T05:31:05;9.20;;;3.38;;
3561;SDS011;1795;52.074;4.754;2023-03-14T05:33:35;5.77;;;3.10;;
3561;SDS011;1795;52.074;4.754;2023-03-14T05:36:04;7.90;;;3.72;;
3561;SDS011;1795;52.074;4.754;2023-03-14T05:38:32;6.05;;;3.10;;
3561;SDS011;1795;52.074;4.754;2023-03-14T05:41:00;11.57;;;3.35;;
3561;SDS011;1795;52.074;4.754;2023-03-14T05:43:28;6.82;;;3.10;;
3561;SDS011;1795;52.074;4.754;2023-03-14T05:45:56;6.38;;;3.70;;
3561;SDS011;1795;52.074;4.754;2023-03-14T05:48:24;10.77;;;4.27;;
3561;SDS011;1795;52.074;4.754;2023-03-14T05:50:57;9.30;;;3.10;;
3561;SDS011;1795;52.074;4.754;2023-03-14T05:53:26;9.65;;;2.47;;
3561;SDS011;1795;52.074;4.754;2023-03-14T05:55:55;4.87;;;2.43;;
3561;SDS011;1795;52.074;4.754;2023-03-14T05:58:24;6.38;;;2.35;;
3561;SDS011;1795;52.074;4.754;2023-03-14T06:00:52;6.47;;;2.60;;
3561;SDS011;1795;52.074;4.754;2023-03-14T06:03:20;7.45;;;2.20;;
3561;SDS011;1795;52.074;4.754;2023-03-14T06:05:49;6.00;;;1.80;;
3561;SDS011;1795;52.074;4.754;2023-03-14T06:08:18;4.93;;;2.10;;
3561;SDS011;1795;52.074;4.754;2023-03-14T06:10:46;4.53;;;2.27;;
3561;SDS011;1795;52.074;4.754;2023-03-14T06:13:14;2.63;;;1.40;;
3561;SDS011;1795;52.074;4.754;2023-03-14T06:15:42;2.43;;;1.20;;
3561;SDS011;1795;52.074;4.754;2023-03-14T06:18:11;3.97;;;1.30;;
3561;SDS011;1795;52.074;4.754;2023-03-14T06:20:40;3.38;;;1.20;;
3561;SDS011;1795;52.074;4.754;2023-03-14T06:23:08;2.67;;;1.45;;
3561;SDS011;1795;52.074;4.754;2023-03-14T06:25:37;2.85;;;1.50;;
3561;SDS011;1795;52.074;4.754;2023-03-14T06:28:05;3.22;;;1.35;;
3561;SDS011;1795;52.074;4.754;2023-03-14T06:30:34;4.30;;;1.65;;
3561;SDS011;1795;52.074;4.754;2023-03-14T06:33:02;3.05;;;1.80;;
3561;SDS011;1795;52.074;4.754;2023-03-14T06:35:30;3.90;;;1.80;;
3561;SDS011;1795;52.074;4.754;2023-03-14T06:37:58;4.47;;;1.70;;
3561;SDS011;1795;52.074;4.754;2023-03-14T06:40:26;4.30;;;1.50;;
3561;SDS011;1795;52.074;4.754;2023-03-14T06:42:55;3.30;;;1.95;;
3561;SDS011;1795;52.074;4.754;2023-03-14T06:45:23;4.32;;;2.00;;
3561;SDS011;1795;52.074;4.754;2023-03-14T06:47:51;3.83;;;1.80;;
3561;SDS011;1795;52.074;4.754;2023-03-14T06:50:19;6.68;;;2.50;;
3561;SDS011;1795;52.074;4.754;2023-03-14T06:52:48;6.20;;;2.70;;
3561;SDS011;1795;52.074;4.754;2023-03-14T06:55:16;5.63;;;2.47;;
3561;SDS011;1795;52.074;4.754;2023-03-14T06:57:47;6.38;;;2.20;;
3561;SDS011;1795;52.074;4.754;2023-03-14T07:00:17;5.90;;;2.30;;
3561;SDS011;1795;52.074;4.754;2023-03-14T07:02:45;7.77;;;2.00;;
3561;SDS011;1795;52.074;4.754;2023-03-14T07:05:13;5.70;;;2.55;;
3561;SDS011;1795;52.074;4.754;2023-03-14T07:07:41;5.78;;;2.20;;
3561;SDS011;1795;52.074;4.754;2023-03-14T07:10:10;3.20;;;1.90;;
3561;SDS011;1795;52.074;4.754;2023-03-14T07:12:38;4.75;;;2.60;;
3561;SDS011;1795;52.074;4.754;2023-03-14T07:15:06;6.22;;;2.72;;
3561;SDS011;1795;52.074;4.754;2023-03-14T07:17:56;6.83;;;2.70;;
3561;SDS011;1795;52.074;4.754;2023-03-14T07:20:25;7.43;;;2.25;;
3561;SDS011;1795;52.074;4.754;2023-03-14T07:22:53;6.03;;;1.90;;
3561;SDS011;1795;52.074;4.754;2023-03-14T07:25:21;5.47;;;1.75;;
3561;SDS011;1795;52.074;4.754;2023-03-14T07:27:49;5.43;;;1.85;;
3561;SDS011;1795;52.074;4.754;2023-03-14T07:30:17;8.95;;;1.92;;
3561;SDS011;1795;52.074;4.754;2023-03-14T07:32:45;3.88;;;1.80;;
3561;SDS011;1795;52.074;4.754;2023-03-14T07:35:15;2.75;;;1.50;;
3561;SDS011;1795;52.074;4.754;2023-03-14T07:37:43;4.57;;;2.00;;
3561;SDS011;1795;52.074;4.754;2023-03-14T07:40:11;3.72;;;1.70;;
3561;SDS011;1795;52.074;4.754;2023-03-14T07:42:41;5.30;;;1.48;;
3561;SDS011;1795;52.074;4.754;2023-03-14T07:45:09;4.80;;;1.90;;
3561;SDS011;1795;52.074;4.754;2023-03-14T07:47:37;2.58;;;1.50;;
3561;SDS011;1795;52.074;4.754;2023-03-14T07:50:06;6.75;;;1.50;;
3561;SDS011;1795;52.074;4.754;2023-03-14T07:52:36;3.33;;;1.60;;
3561;SDS011;1795;52.074;4.754;2023-03-14T07:55:05;4.80;;;1.60;;
3561;SDS011;1795;52.074;4.754;2023-03-14T07:57:33;6.28;;;2.10;;
3561;SDS011;1795;52.074;4.754;2023-03-14T08:00:01;9.23;;;2.65;;
3561;SDS011;1795;52.074;4.754;2023-03-14T08:02:31;5.45;;;2.90;;
3561;SDS011;1795;52.074;4.754;2023-03-14T08:04:59;10.35;;;2.85;;
3561;SDS011;1795;52.074;4.754;2023-03-14T08:07:27;11.07;;;2.35;;
3561;SDS011;1795;52.074;4.754;2023-03-14T08:09:57;10.00;;;2.20;;
3561;SDS011;1795;52.074;4.754;2023-03-14T08:12:25;4.30;;;1.70;;
3561;SDS011;1795;52.074;4.754;2023-03-14T08:14:53;7.05;;;1.90;;
3561;SDS011;1795;52.074;4.754;2023-03-14T08:17:21;4.90;;;1.60;;
3561;SDS011;1795;52.074;4.754;2023-03-14T08:19:49;6.53;;;2.50;;
3561;SDS011;1795;52.074;4.754;2023-03-14T08:22:17;6.25;;;2.45;;
3561;SDS011;1795;52.074;4.754;2023-03-14T08:24:45;4.72;;;1.30;;
3561;SDS011;1795;52.074;4.754;2023-03-14T08:27:15;6.20;;;1.63;;
3561;SDS011;1795;52.074;4.754;2023-03-14T08:29:43;4.70;;;1.40;;
3561;SDS011;1795;52.074;4.754;2023-03-14T08:32:11;8.05;;;1.70;;
3561;SDS011;1795;52.074;4.754;2023-03-14T08:34:39;5.90;;;1.50;;
3561;SDS011;1795;52.074;4.754;2023-03-14T08:37:07;3.00;;;1.80;;
3561;SDS011;1795;52.074;4.754;2023-03-14T08:39:51;5.95;;;2.20;;
3561;SDS011;1795;52.074;4.754;2023-03-14T08:42:20;8.70;;;2.60;;
3561;SDS011;1795;52.074;4.754;2023-03-14T08:44:48;5.03;;;1.90;;
3561;SDS011;1795;52.074;4.754;2023-03-14T08:47:17;5.65;;;1.70;;
3561;SDS011;1795;52.074;4.754;2023-03-14T08:49:45;5.70;;;1.40;;
3561;SDS011;1795;52.074;4.754;2023-03-14T08:52:13;3.50;;;1.30;;
3561;SDS011;1795;52.074;4.754;2023-03-14T08:54:43;3.53;;;1.50;;
3561;SDS011;1795;52.074;4.754;2023-03-14T08:57:11;6.43;;;2.07;;
3561;SDS011;1795;52.074;4.754;2023-03-14T08:59:40;4.10;;;2.20;;
3561;SDS011;1795;52.074;4.754;2023-03-14T09:02:09;7.07;;;2.75;;
3561;SDS011;1795;52.074;4.754;2023-03-14T09:04:39;7.35;;;2.90;;
3561;SDS011;1795;52.074;4.754;2023-03-14T09:07:07;5.32;;;2.58;;
3561;SDS011;1795;52.074;4.754;2023-03-14T09:09:35;8.40;;;2.38;;
3561;SDS011;1795;52.074;4.754;2023-03-14T09:12:03;5.53;;;2.40;;
3561;SDS011;1795;52.074;4.754;2023-03-14T09:14:32;7.15;;;2.40;;
3561;SDS011;1795;52.074;4.754;2023-03-14T09:17:02;12.98;;;3.25;;
3561;SDS011;1795;52.074;4.754;2023-03-14T09:19:30;8.45;;;3.10;;
3561;SDS011;1795;52.074;4.754;2023-03-14T09:21:58;9.40;;;3.60;;
3561;SDS011;1795;52.074;4.754;2023-03-14T09:24:26;12.32;;;3.40;;
3561;SDS011;1795;52.074;4.754;2023-03-14T09:26:54;11.43;;;3.47;;
3561;SDS011;1795;52.074;4.754;2023-03-14T09:29:22;10.97;;;3.40;;
3561;SDS011;1795;52.074;4.754;2023-03-14T09:31:51;12.68;;;3.47;;
3561;SDS011;1795;52.074;4.754;2023-03-14T09:34:21;16.40;;;3.13;;
3561;SDS011;1795;52.074;4.754;2023-03-14T09:36:49;12.87;;;3.53;;
3561;SDS011;1795;52.074;4.754;2023-03-14T09:39:17;15.30;;;3.40;;
3561;SDS011;1795;52.074;4.754;2023-03-14T09:41:45;15.25;;;3.70;;
3561;SDS011;1795;52.074;4.754;2023-03-14T09:44:16;13.13;;;4.20;;
3561;SDS011;1795;52.074;4.754;2023-03-14T09:46:50;14.70;;;4.30;;
3561;SDS011;1795;52.074;4.754;2023-03-14T09:49:23;12.63;;;3.90;;
3561;SDS011;1795;52.074;4.754;2023-03-14T09:51:55;14.05;;;3.90;;
3561;SDS011;1795;52.074;4.754;2023-03-14T09:54:34;17.00;;;4.53;;
3561;SDS011;1795;52.074;4.754;2023-03-14T09:57:04;18.10;;;3.90;;
3561;SDS011;1795;52.074;4.754;2023-03-14T09:59:33;15.90;;;3.88;;
3561;SDS011;1795;52.074;4.754;2023-03-14T10:02:11;14.93;;;3.80;;
3561;SDS011;1795;52.074;4.754;2023-03-14T10:04:45;17.40;;;4.70;;
3561;SDS011;1795;52.074;4.754;2023-03-14T10:07:15;14.47;;;4.43;;
3561;SDS011;1795;52.074;4.754;2023-03-14T10:09:46;16.90;;;4.33;;
3561;SDS011;1795;52.074;4.754;2023-03-14T10:12:16;15.48;;;3.70;;
3561;SDS011;1795;52.074;4.754;2023-03-14T10:14:46;17.80;;;4.20;;
3561;SDS011;1795;52.074;4.754;2023-03-14T10:17:16;17.02;;;3.85;;
3561;SDS011;1795;52.074;4.754;2023-03-14T10:19:54;15.37;;;5.07;;
3561;SDS011;1795;52.074;4.754;2023-03-14T10:22:24;21.02;;;3.97;;
3561;SDS011;1795;52.074;4.754;2023-03-14T10:24:59;18.05;;;4.30;;
3561;SDS011;1795;52.074;4.754;2023-03-14T10:27:29;17.75;;;4.30;;
3561;SDS011;1795;52.074;4.754;2023-03-14T10:29:59;20.83;;;4.57;;
3561;SDS011;1795;52.074;4.754;2023-03-14T10:32:32;18.27;;;4.72;;
3561;SDS011;1795;52.074;4.754;2023-03-14T10:35:07;22.60;;;4.50;;
3561;SDS011;1795;52.074;4.754;2023-03-14T10:37:51;22.55;;;4.30;;
3561;SDS011;1795;52.074;4.754;2023-03-14T10:40:24;18.58;;;4.30;;
3561;SDS011;1795;52.074;4.754;2023-03-14T10:42:55;19.05;;;3.78;;
3561;SDS011;1795;52.074;4.754;2023-03-14T10:45:28;27.10;;;5.50;;
3561;SDS011;1795;52.074;4.754;2023-03-14T10:47:59;24.83;;;6.50;;
3561;SDS011;1795;52.074;4.754;2023-03-14T10:50:48;24.60;;;5.55;;
3561;SDS011;1795;52.074;4.754;2023-03-14T10:53:20;20.10;;;5.33;;
3561;SDS011;1795;52.074;4.754;2023-03-14T10:55:48;22.80;;;5.10;;
3561;SDS011;1795;52.074;4.754;2023-03-14T10:58:17;21.90;;;4.40;;
3561;SDS011;1795;52.074;4.754;2023-03-14T11:00:47;20.33;;;4.40;;
3561;SDS011;1795;52.074;4.754;2023-03-14T11:03:21;20.90;;;4.85;;
3561;SDS011;1795;52.074;4.754;2023-03-14T11:05:52;22.57;;;5.40;;
3561;SDS011;1795;52.074;4.754;2023-03-14T11:08:25;20.38;;;4.55;;
3561;SDS011;1795;52.074;4.754;2023-03-14T11:11:06;17.58;;;4.30;;
3561;SDS011;1795;52.074;4.754;2023-03-14T11:13:43;12.98;;;3.97;;
3561;SDS011;1795;52.074;4.754;2023-03-14T11:16:22;18.17;;;4.10;;
3561;SDS011;1795;52.074;4.754;2023-03-14T11:19:14;15.13;;;4.13;;
3561;SDS011;1795;52.074;4.754;2023-03-14T11:21:52;14.60;;;3.33;;
3561;SDS011;1795;52.074;4.754;2023-03-14T11:27:16;14.98;;;3.88;;
3561;SDS011;1795;52.074;4.754;2023-03-14T11:29:49;14.65;;;4.43;;
3561;SDS011;1795;52.074;4.754;2023-03-14T11:32:24;14.75;;;4.00;;
3561;SDS011;1795;52.074;4.754;2023-03-14T11:35:04;16.58;;;3.60;;
3561;SDS011;1795;52.074;4.754;2023-03-14T11:37:45;14.23;;;3.60;;
3561;SDS011;1795;52.074;4.754;2023-03-14T11:40:16;10.48;;;3.40;;
3561;SDS011;1795;52.074;4.754;2023-03-14T11:42:46;19.30;;;3.47;;
3561;SDS011;1795;52.074;4.754;2023-03-14T11:45:21;12.43;;;2.90;;
3561;SDS011;1795;52.074;4.754;2023-03-14T11:47:57;13.88;;;2.72;;
3561;SDS011;1795;52.074;4.754;2023-03-14T11:50:36;12.95;;;3.72;;
3561;SDS011;1795;52.074;4.754;2023-03-14T11:53:11;10.15;;;3.78;;
3561;SDS011;1795;52.074;4.754;2023-03-14T11:55:43;15.68;;;3.92;;
3561;SDS011;1795;52.074;4.754;2023-03-14T11:58:14;13.23;;;3.90;;
3561;SDS011;1795;52.074;4.754;2023-03-14T12:00:45;15.43;;;3.90;;
3561;SDS011;1795;52.074;4.754;2023-03-14T12:03:17;8.37;;;3.57;;
3561;SDS011;1795;52.074;4.754;2023-03-14T12:05:57;15.00;;;3.45;;
3561;SDS011;1795;52.074;4.754;2023-03-14T12:08:40;9.98;;;3.15;;
3561;SDS011;1795;52.074;4.754;2023-03-14T12:11:17;15.77;;;3.30;;
3561;SDS011;1795;52.074;4.754;2023-03-14T12:13:48;17.63;;;4.47;;
3561;SDS011;1795;52.074;4.754;2023-03-14T12:16:30;8.75;;;3.33;;
3561;SDS011;1795;52.074;4.754;2023-03-14T12:19:14;10.90;;;3.42;;
3561;SDS011;1795;52.074;4.754;2023-03-14T12:21:53;14.43;;;3.22;;
3561;SDS011;1795;52.074;4.754;2023-03-14T12:24:26;13.80;;;2.92;;
3561;SDS011;1795;52.074;4.754;2023-03-14T12:26:59;11.80;;;3.37;;
3561;SDS011;1795;52.074;4.754;2023-03-14T12:29:29;10.63;;;2.97;;
3561;SDS011;1795;52.074;4.754;2023-03-14T12:32:07;13.38;;;2.40;;
3561;SDS011;1795;52.074;4.754;2023-03-14T12:34:38;9.80;;;2.90;;
3561;SDS011;1795;52.074;4.754;2023-03-14T12:37:19;12.70;;;3.78;;
3561;SDS011;1795;52.074;4.754;2023-03-14T12:40:03;11.10;;;2.80;;
3561;SDS011;1795;52.074;4.754;2023-03-14T12:42:43;11.13;;;2.70;;
3561;SDS011;1795;52.074;4.754;2023-03-14T12:45:24;10.53;;;2.63;;
3561;SDS011;1795;52.074;4.754;2023-03-14T12:47:56;10.17;;;3.17;;
3561;SDS011;1795;52.074;4.754;2023-03-14T12:50:36;7.72;;;2.50;;
3561;SDS011;1795;52.074;4.754;2023-03-14T12:53:19;10.65;;;2.75;;
3561;SDS011;1795;52.074;4.754;2023-03-14T12:56:22;8.23;;;2.70;;
3561;SDS011;1795;52.074;4.754;2023-03-14T12:59:02;9.73;;;2.83;;
3561;SDS011;1795;52.074;4.754;2023-03-14T13:01:45;9.90;;;3.37;;
3561;SDS011;1795;52.074;4.754;2023-03-14T13:04:15;9.73;;;2.90;;
3561;SDS011;1795;52.074;4.754;2023-03-14T13:06:55;8.02;;;2.50;;
3561;SDS011;1795;52.074;4.754;2023-03-14T13:09:36;8.60;;;2.10;;
3561;SDS011;1795;52.074;4.754;2023-03-14T13:12:22;8.27;;;2.20;;
3561;SDS011;1795;52.074;4.754;2023-03-14T13:14:57;6.63;;;2.08;;
3561;SDS011;1795;52.074;4.754;2023-03-14T13:17:31;6.70;;;2.17;;
3561;SDS011;1795;52.074;4.754;2023-03-14T13:20:05;6.87;;;2.57;;
3561;SDS011;1795;52.074;4.754;2023-03-14T13:22:40;8.30;;;2.70;;
3561;SDS011;1795;52.074;4.754;2023-03-14T13:25:13;7.88;;;3.30;;
3561;SDS011;1795;52.074;4.754;2023-03-14T13:27:44;7.93;;;2.50;;
3561;SDS011;1795;52.074;4.754;2023-03-14T13:30:16;7.18;;;3.20;;
3561;SDS011;1795;52.074;4.754;2023-03-14T13:32:48;6.70;;;2.53;;
3561;SDS011;1795;52.074;4.754;2023-03-14T13:35:18;10.93;;;3.10;;
3561;SDS011;1795;52.074;4.754;2023-03-14T13:37:51;10.70;;;3.10;;
3561;SDS011;1795;52.074;4.754;2023-03-14T13:40:36;11.27;;;3.35;;
3561;SDS011;1795;52.074;4.754;2023-03-14T13:43:09;7.07;;;2.85;;
3561;SDS011;1795;52.074;4.754;2023-03-14T13:45:43;9.02;;;3.80;;
3561;SDS011;1795;52.074;4.754;2023-03-14T13:48:13;11.50;;;3.53;;
3561;SDS011;1795;52.074;4.754;2023-03-14T13:50:46;9.25;;;3.30;;
3561;SDS011;1795;52.074;4.754;2023-03-14T13:53:18;7.00;;;2.30;;
3561;SDS011;1795;52.074;4.754;2023-03-14T13:55:46;5.90;;;2.50;;
3561;SDS011;1795;52.074;4.754;2023-03-14T13:58:23;5.70;;;2.30;;
3561;SDS011;1795;52.074;4.754;2023-03-14T14:01:00;7.95;;;2.40;;
3561;SDS011;1795;52.074;4.754;2023-03-14T14:03:31;6.78;;;2.20;;
3561;SDS011;1795;52.074;4.754;2023-03-14T14:06:01;5.90;;;2.47;;
3561;SDS011;1795;52.074;4.754;2023-03-14T14:08:29;10.30;;;3.22;;
3561;SDS011;1795;52.074;4.754;2023-03-14T14:10:58;9.47;;;3.10;;
3561;SDS011;1795;52.074;4.754;2023-03-14T14:13:31;11.95;;;2.60;;
3561;SDS011;1795;52.074;4.754;2023-03-14T14:16:02;12.70;;;2.78;;
3561;SDS011;1795;52.074;4.754;2023-03-14T14:18:31;10.80;;;2.58;;
3561;SDS011;1795;52.074;4.754;2023-03-14T14:21:01;10.85;;;2.72;;
3561;SDS011;1795;52.074;4.754;2023-03-14T14:23:30;10.73;;;2.47;;
3561;SDS011;1795;52.074;4.754;2023-03-14T14:25:58;8.73;;;2.78;;
3561;SDS011;1795;52.074;4.754;2023-03-14T14:28:27;7.45;;;2.90;;
3561;SDS011;1795;52.074;4.754;2023-03-14T14:31:15;6.65;;;2.90;;
3561;SDS011;1795;52.074;4.754;2023-03-14T14:33:53;11.75;;;2.70;;
3561;SDS011;1795;52.074;4.754;2023-03-14T14:36:23;9.50;;;3.20;;
3561;SDS011;1795;52.074;4.754;2023-03-14T14:38:53;9.13;;;2.53;;
3561;SDS011;1795;52.074;4.754;2023-03-14T14:41:26;9.70;;;3.00;;
3561;SDS011;1795;52.074;4.754;2023-03-14T14:43:59;8.52;;;2.63;;
3561;SDS011;1795;52.074;4.754;2023-03-14T14:46:30;9.43;;;2.33;;
3561;SDS011;1795;52.074;4.754;2023-03-14T14:49:02;9.70;;;2.50;;
3561;SDS011;1795;52.074;4.754;2023-03-14T14:51:34;10.70;;;2.60;;
3561;SDS011;1795;52.074;4.754;2023-03-14T14:54:11;8.95;;;3.08;;
3561;SDS011;1795;52.074;4.754;2023-03-14T14:56:44;7.13;;;2.63;;
3561;SDS011;1795;52.074;4.754;2023-03-14T14:59:18;8.07;;;2.00;;
3561;SDS011;1795;52.074;4.754;2023-03-14T15:01:54;8.27;;;2.30;;
3561;SDS011;1795;52.074;4.754;2023-03-14T15:04:23;5.15;;;2.03;;
3561;SDS011;1795;52.074;4.754;2023-03-14T15:06:51;7.55;;;2.60;;
3561;SDS011;1795;52.074;4.754;2023-03-14T15:09:20;10.97;;;2.60;;
3561;SDS011;1795;52.074;4.754;2023-03-14T15:11:48;7.28;;;2.30;;
3561;SDS011;1795;52.074;4.754;2023-03-14T15:14:17;11.15;;;2.95;;
3561;SDS011;1795;52.074;4.754;2023-03-14T15:16:45;8.50;;;3.30;;
3561;SDS011;1795;52.074;4.754;2023-03-14T15:19:16;8.43;;;3.45;;
3561;SDS011;1795;52.074;4.754;2023-03-14T15:21:51;4.43;;;2.53;;
3561;SDS011;1795;52.074;4.754;2023-03-14T15:24:20;9.88;;;3.10;;
3561;SDS011;1795;52.074;4.754;2023-03-14T15:26:48;7.47;;;2.65;;
3561;SDS011;1795;52.074;4.754;2023-03-14T15:29:16;7.53;;;2.60;;
3561;SDS011;1795;52.074;4.754;2023-03-14T15:31:45;9.57;;;2.85;;
3561;SDS011;1795;52.074;4.754;2023-03-14T15:34:13;8.57;;;2.67;;
3561;SDS011;1795;52.074;4.754;2023-03-14T15:36:42;13.25;;;3.50;;